createdAt,value
2023-01-29T00:02:41.673Z,42.85
2023-01-29T00:05:45.294Z,36.97
2023-01-29T00:08:48.142Z,34.58
2023-01-29T00:11:51.363Z,38.90
2023-01-29T00:14:54.947Z,36.92
2023-01-29T00:17:58.828Z,35.03
2023-01-29T00:21:01.254Z,38.22
2023-01-29T00:24:04.249Z,37.10
2023-01-29T00:27:06.762Z,37.45
2023-01-29T00:30:12.854Z,37.28
2023-01-29T00:33:15.228Z,37.00
2023-01-29T00:36:20.033Z,35.95
2023-01-29T00:39:31.372Z,38.85
2023-01-29T00:42:57.968Z,35.13
2023-01-29T00:49:04.497Z,40.17
2023-01-29T00:52:25.277Z,40.10
2023-01-29T00:55:28.252Z,38.35
2023-01-29T00:58:34.472Z,37.85
2023-01-29T01:01:55.907Z,41.10
2023-01-29T01:04:58.426Z,40.03
2023-01-29T01:08:01.568Z,37.05
2023-01-29T01:11:06.426Z,34.28
2023-01-29T01:14:09.679Z,36.22
2023-01-29T01:17:12.268Z,36.47
2023-01-29T01:20:16.034Z,37.10
2023-01-29T01:23:19.798Z,36.40
2023-01-29T01:26:22.730Z,36.40
2023-01-29T01:29:25.286Z,35.45
2023-01-29T01:32:28.171Z,38.78
2023-01-29T01:35:31.091Z,38.97
2023-01-29T01:38:34.323Z,35.78
2023-01-29T01:41:37.153Z,39.17
2023-01-29T01:44:53.990Z,38.53
2023-01-29T01:48:16.582Z,34.92
2023-01-29T01:51:22.011Z,39.10
2023-01-29T01:54:30.132Z,37.92
2023-01-29T01:57:34.185Z,39.80
2023-01-29T02:00:39.592Z,37.88
2023-01-29T02:04:13.416Z,38.95
2023-01-29T02:07:35.663Z,37.13
2023-01-29T02:10:42.980Z,36.20
2023-01-29T02:13:53.774Z,39.08
2023-01-29T02:17:01.914Z,41.50
2023-01-29T02:20:26.510Z,40.55
2023-01-29T02:23:51.695Z,36.75
2023-01-29T02:27:26.304Z,35.35
2023-01-29T02:30:36.351Z,39.22
2023-01-29T02:33:53.272Z,36.67
2023-01-29T02:37:08.257Z,35.47
2023-01-29T02:40:34.039Z,40.10
2023-01-29T02:43:54.148Z,38.45
2023-01-29T02:47:05.725Z,40.22
2023-01-29T02:50:20.332Z,41.80
2023-01-29T02:53:47.453Z,37.50
2023-01-29T02:56:58.748Z,40.55
2023-01-29T03:00:10.891Z,40.25
2023-01-29T03:03:21.046Z,37.97
2023-01-29T03:06:37.481Z,41.13
2023-01-29T03:09:46.553Z,39.75
2023-01-29T03:12:59.780Z,40.58
2023-01-29T03:16:09.022Z,39.25
2023-01-29T03:19:22.242Z,40.75
2023-01-29T03:22:30.159Z,40.75
2023-01-29T03:25:56.891Z,39.75
2023-01-29T03:29:24.859Z,37.03
2023-01-29T03:32:30.903Z,36.78
2023-01-29T03:35:39.613Z,39.00
2023-01-29T03:38:43.381Z,38.03
2023-01-29T03:42:09.152Z,33.97
2023-01-29T03:45:21.891Z,37.25
2023-01-29T03:48:35.606Z,38.38
2023-01-29T03:52:04.379Z,34.00
2023-01-29T03:55:24.416Z,38.65
2023-01-29T03:58:47.659Z,35.30
2023-01-29T04:01:59.359Z,34.38
2023-01-29T04:05:10.155Z,36.25
2023-01-29T04:08:22.869Z,34.97
2023-01-29T04:11:28.915Z,32.67
2023-01-29T04:14:33.481Z,34.92
2023-01-29T04:17:41.975Z,34.95
2023-01-29T04:20:46.505Z,36.35
2023-01-29T04:23:49.617Z,37.00
2023-01-29T04:27:05.082Z,32.42
2023-01-29T04:30:30.635Z,35.13
2023-01-29T04:34:11.460Z,36.88
2023-01-29T04:37:30.687Z,33.22
2023-01-29T04:40:48.041Z,38.75
2023-01-29T04:44:14.817Z,38.75
2023-01-29T04:47:29.168Z,32.67
2023-01-29T04:50:54.398Z,32.55
2023-01-29T04:54:07.848Z,33.15
2023-01-29T04:57:28.941Z,37.17
2023-01-29T05:00:36.190Z,33.53
2023-01-29T05:03:42.704Z,36.05
2023-01-29T05:06:47.403Z,34.80
2023-01-29T05:09:51.209Z,31.42
2023-01-29T05:13:00.470Z,29.85
2023-01-29T05:16:10.207Z,27.80
2023-01-29T05:19:15.048Z,25.90
2023-01-29T05:22:22.713Z,26.80
2023-01-29T05:25:31.102Z,28.80
2023-01-29T05:28:36.054Z,29.40
2023-01-29T05:31:38.619Z,26.73
2023-01-29T05:34:42.331Z,23.85
2023-01-29T05:37:44.693Z,26.02
2023-01-29T05:40:47.657Z,26.77
2023-01-29T05:43:50.058Z,28.08
2023-01-29T05:46:53.110Z,23.17
2023-01-29T05:49:55.476Z,27.48
2023-01-29T05:53:02.293Z,25.35
2023-01-29T05:56:05.217Z,27.02
2023-01-29T05:59:08.003Z,24.10
2023-01-29T06:02:10.478Z,25.08
2023-01-29T06:05:16.164Z,25.25
2023-01-29T06:08:18.581Z,20.88
2023-01-29T06:11:22.867Z,25.23
2023-01-29T06:14:25.404Z,23.52
2023-01-29T06:17:28.098Z,23.70
2023-01-29T06:20:30.498Z,25.58
2023-01-29T06:23:33.425Z,25.33
2023-01-29T06:26:35.863Z,23.58
2023-01-29T06:29:38.897Z,21.75
2023-01-29T06:32:41.276Z,25.12
2023-01-29T06:35:44.200Z,24.90
2023-01-29T06:38:49.724Z,20.95
2023-01-29T06:41:52.665Z,26.05
2023-01-29T06:44:58.247Z,23.87
2023-01-29T06:48:01.638Z,23.48
2023-01-29T06:51:13.916Z,21.70
2023-01-29T06:54:16.688Z,18.50
2023-01-29T06:57:19.077Z,21.60
2023-01-29T07:00:21.969Z,21.92
2023-01-29T07:03:24.215Z,21.73
2023-01-29T07:06:28.942Z,22.02
2023-01-29T07:09:32.792Z,20.85
2023-01-29T07:12:35.879Z,17.48
2023-01-29T07:15:38.430Z,19.67
2023-01-29T07:18:41.420Z,18.87
2023-01-29T07:21:46.066Z,18.98
2023-01-29T07:24:48.975Z,19.12
2023-01-29T07:27:53.198Z,17.62
2023-01-29T07:30:57.752Z,20.25
2023-01-29T07:34:00.150Z,18.17
2023-01-29T07:37:03.195Z,19.73
2023-01-29T07:40:14.398Z,20.67
2023-01-29T07:43:17.625Z,19.15
2023-01-29T07:46:20.109Z,21.17
2023-01-29T07:49:22.886Z,18.73
2023-01-29T07:52:31.117Z,20.37
2023-01-29T07:55:34.197Z,20.12
2023-01-29T07:58:37.118Z,18.55
2023-01-29T08:01:39.793Z,20.00
2023-01-29T08:04:42.671Z,19.85
2023-01-29T08:07:49.351Z,21.95
2023-01-29T08:10:57.188Z,18.55
2023-01-29T08:13:59.518Z,16.58
2023-01-29T08:17:02.181Z,17.52
2023-01-29T08:20:06.252Z,19.80
2023-01-29T08:23:15.825Z,19.05
2023-01-29T08:26:18.233Z,16.77
2023-01-29T08:29:20.884Z,17.80
2023-01-29T08:32:23.351Z,16.10
2023-01-29T08:35:26.812Z,16.00
2023-01-29T08:38:29.640Z,17.62
2023-01-29T08:41:32.945Z,16.77
2023-01-29T08:44:35.312Z,17.30
2023-01-29T08:47:38.013Z,16.62
2023-01-29T08:50:40.466Z,16.83
2023-01-29T08:53:43.272Z,18.77
2023-01-29T08:56:45.862Z,18.58
2023-01-29T08:59:48.707Z,15.43
2023-01-29T09:02:51.709Z,15.40
2023-01-29T09:05:54.661Z,14.18
2023-01-29T09:08:57.415Z,14.95
2023-01-29T09:12:00.114Z,14.98
2023-01-29T09:15:02.620Z,13.85
2023-01-29T09:18:06.019Z,16.00
2023-01-29T09:21:08.880Z,13.10
2023-01-29T09:24:11.949Z,14.57
2023-01-29T09:27:14.423Z,14.52
2023-01-29T09:30:17.887Z,13.55
2023-01-29T09:33:21.582Z,15.80
2023-01-29T09:36:24.605Z,18.80
2023-01-29T09:39:30.184Z,13.52
2023-01-29T09:42:50.682Z,14.98
2023-01-29T09:46:19.440Z,15.57
2023-01-29T09:49:28.929Z,13.13
2023-01-29T09:52:40.225Z,15.40
2023-01-29T09:55:49.903Z,14.23
2023-01-29T09:58:52.531Z,14.05
2023-01-29T10:02:43.370Z,11.43
2023-01-29T10:06:21.686Z,13.93
2023-01-29T10:09:39.152Z,14.93
2023-01-29T10:12:51.337Z,12.52
2023-01-29T10:16:41.543Z,12.10
2023-01-29T10:20:14.001Z,10.35
2023-01-29T10:23:26.025Z,12.37
2023-01-29T10:26:29.973Z,12.45
2023-01-29T10:29:34.547Z,10.93
2023-01-29T10:32:40.753Z,11.82
2023-01-29T10:35:46.471Z,12.75
2023-01-29T10:38:52.849Z,13.48
2023-01-29T10:42:20.900Z,11.75
2023-01-29T10:45:46.023Z,12.00
2023-01-29T10:49:21.718Z,11.90
2023-01-29T10:52:51.332Z,12.75
2023-01-29T10:56:23.727Z,12.85
2023-01-29T10:59:53.771Z,11.18
2023-01-29T11:02:56.417Z,10.82
2023-01-29T11:06:19.050Z,12.82
2023-01-29T11:09:33.187Z,13.90
2023-01-29T11:12:38.864Z,12.02
2023-01-29T11:15:41.349Z,13.35
2023-01-29T11:18:56.470Z,11.55
2023-01-29T11:22:01.371Z,11.88
2023-01-29T11:25:18.874Z,11.88
2023-01-29T11:28:41.090Z,13.23
2023-01-29T11:31:45.599Z,11.98
2023-01-29T11:35:20.672Z,12.95
2023-01-29T11:38:28.822Z,13.77
2023-01-29T11:41:42.225Z,12.68
2023-01-29T11:44:45.272Z,12.18
2023-01-29T11:47:54.360Z,12.32
2023-01-29T11:51:04.852Z,11.45
2023-01-29T11:54:18.241Z,11.50
2023-01-29T11:57:29.432Z,10.60
2023-01-29T12:00:36.793Z,10.32
2023-01-29T12:03:46.186Z,12.02
2023-01-29T12:06:52.770Z,11.95
2023-01-29T12:09:58.426Z,10.77
2023-01-29T12:13:04.721Z,12.52
2023-01-29T12:17:00.388Z,10.25
2023-01-29T12:20:18.504Z,12.05
2023-01-29T12:23:44.427Z,10.68
2023-01-29T12:26:55.021Z,10.50
2023-01-29T12:30:10.217Z,10.23
2023-01-29T12:33:32.225Z,8.25
2023-01-29T12:36:53.214Z,11.43
2023-01-29T12:39:55.944Z,10.63
2023-01-29T12:43:05.603Z,11.23
2023-01-29T12:46:21.439Z,10.07
2023-01-29T12:49:39.988Z,7.15
2023-01-29T12:52:51.920Z,10.35
2023-01-29T12:56:09.713Z,9.75
2023-01-29T12:59:24.592Z,8.73
2023-01-29T13:02:44.606Z,8.90
2023-01-29T13:06:13.915Z,9.57
2023-01-29T13:09:22.119Z,9.73
2023-01-29T13:12:24.851Z,9.35
2023-01-29T13:15:38.790Z,8.32
2023-01-29T13:18:46.197Z,9.30
2023-01-29T13:21:54.165Z,8.50
2023-01-29T13:25:04.552Z,8.77
2023-01-29T13:28:18.285Z,9.07
2023-01-29T13:31:34.820Z,10.05
2023-01-29T13:34:45.441Z,7.97
2023-01-29T13:37:53.927Z,9.98
2023-01-29T13:41:03.134Z,10.50
2023-01-29T13:44:08.169Z,8.20
2023-01-29T13:47:22.179Z,7.78
2023-01-29T13:50:41.376Z,9.80
2023-01-29T13:53:52.761Z,8.88
2023-01-29T13:56:55.035Z,9.60
2023-01-29T13:59:58.917Z,8.15
2023-01-29T14:03:01.377Z,9.52
2023-01-29T14:06:04.625Z,8.63
2023-01-29T14:09:38.732Z,9.95
2023-01-29T14:12:43.606Z,8.75
2023-01-29T14:16:07.127Z,9.13
2023-01-29T14:19:19.083Z,9.48
2023-01-29T14:22:28.882Z,8.32
2023-01-29T14:25:34.934Z,9.07
2023-01-29T14:28:37.608Z,9.95
2023-01-29T14:31:43.639Z,11.35
2023-01-29T14:34:51.172Z,9.48
2023-01-29T14:37:59.173Z,11.80
2023-01-29T14:41:06.055Z,8.52
2023-01-29T14:44:45.988Z,10.05
2023-01-29T14:47:48.244Z,9.45
2023-01-29T14:50:53.239Z,9.63
2023-01-29T14:54:11.985Z,12.23
2023-01-29T14:57:18.085Z,10.07
2023-01-29T15:00:30.163Z,10.00
2023-01-29T15:03:43.839Z,12.43
2023-01-29T15:06:56.322Z,9.10
2023-01-29T15:10:22.335Z,11.57
2023-01-29T15:13:38.084Z,10.90
2023-01-29T15:16:53.258Z,12.20
2023-01-29T15:19:56.862Z,10.55
2023-01-29T15:23:00.696Z,11.07
2023-01-29T15:26:07.118Z,13.05
2023-01-29T15:29:24.240Z,12.55
2023-01-29T15:32:31.506Z,12.55
2023-01-29T15:35:41.406Z,12.82
2023-01-29T15:38:43.799Z,11.50
2023-01-29T15:41:47.192Z,14.13
2023-01-29T15:44:49.593Z,12.95
2023-01-29T15:47:55.363Z,16.48
2023-01-29T15:50:58.969Z,12.52
2023-01-29T15:54:08.063Z,16.37
2023-01-29T15:57:21.279Z,14.07
2023-01-29T16:00:27.727Z,12.82
2023-01-29T16:03:33.564Z,13.75
2023-01-29T16:06:38.942Z,13.57
2023-01-29T16:09:43.402Z,13.32
2023-01-29T16:12:51.368Z,13.62
2023-01-29T16:16:07.669Z,15.02
2023-01-29T16:19:21.162Z,15.70
2023-01-29T16:22:25.314Z,15.82
2023-01-29T16:25:30.380Z,16.65
2023-01-29T16:28:39.349Z,13.00
2023-01-29T16:31:44.812Z,13.38
2023-01-29T16:34:49.849Z,16.02
2023-01-29T16:37:56.004Z,14.48
2023-01-29T16:41:08.468Z,14.77
2023-01-29T16:44:16.822Z,15.90
2023-01-29T16:47:36.665Z,13.77
2023-01-29T16:50:53.872Z,16.00
2023-01-29T16:54:06.480Z,14.23
2023-01-29T16:57:18.407Z,17.20
2023-01-29T17:00:27.685Z,14.75
2023-01-29T17:03:36.117Z,18.48
2023-01-29T17:06:46.087Z,16.05
2023-01-29T17:09:54.443Z,18.58
2023-01-29T17:13:20.435Z,15.33
2023-01-29T17:16:34.648Z,15.88
2023-01-29T17:19:37.705Z,17.55
2023-01-29T17:22:43.251Z,16.27
2023-01-29T17:25:52.980Z,18.83
2023-01-29T17:28:56.400Z,14.70
2023-01-29T17:32:00.376Z,13.85
2023-01-29T17:35:03.465Z,19.02
2023-01-29T17:38:11.544Z,16.25
2023-01-29T17:41:27.155Z,14.90
2023-01-29T17:44:30.086Z,17.02
2023-01-29T17:47:32.593Z,17.75
2023-01-29T17:50:39.105Z,16.50
2023-01-29T17:53:47.507Z,16.73
2023-01-29T17:56:52.315Z,15.40
2023-01-29T17:59:56.594Z,15.32
2023-01-29T18:03:02.580Z,17.25
2023-01-29T18:06:10.233Z,17.52
2023-01-29T18:09:14.850Z,18.10
2023-01-29T18:12:17.745Z,16.98
2023-01-29T18:15:20.478Z,21.08
2023-01-29T18:18:24.422Z,18.70
2023-01-29T18:21:26.745Z,18.50
2023-01-29T18:24:30.051Z,17.55
2023-01-29T18:27:32.447Z,17.23
2023-01-29T18:30:35.141Z,18.65
2023-01-29T18:33:37.671Z,21.92
2023-01-29T18:36:40.500Z,18.25
2023-01-29T18:39:44.169Z,20.15
2023-01-29T18:42:47.188Z,18.37
2023-01-29T18:45:49.517Z,17.87
2023-01-29T18:48:52.458Z,19.15
2023-01-29T18:51:55.112Z,18.15
2023-01-29T18:54:57.861Z,18.48
2023-01-29T18:58:33.663Z,18.50
2023-01-29T19:01:23.906Z,18.62
2023-01-29T19:04:26.400Z,17.37
2023-01-29T19:07:30.154Z,19.23
2023-01-29T19:10:32.848Z,21.10
2023-01-29T19:13:36.475Z,19.45
2023-01-29T19:16:38.921Z,17.92
2023-01-29T19:19:41.791Z,19.08
2023-01-29T19:22:44.562Z,19.02
2023-01-29T19:25:47.825Z,18.55
2023-01-29T19:28:51.047Z,19.17
2023-01-29T19:31:53.779Z,18.85
2023-01-29T19:34:57.737Z,21.90
2023-01-29T19:38:01.159Z,21.20
2023-01-29T19:41:05.361Z,21.70
2023-01-29T19:44:08.108Z,18.20
2023-01-29T19:47:10.563Z,18.70
2023-01-29T19:50:13.195Z,16.20
2023-01-29T19:53:15.431Z,16.10
2023-01-29T19:56:19.907Z,17.60
2023-01-29T19:59:22.843Z,16.25
2023-01-29T20:02:25.552Z,15.77
2023-01-29T20:05:28.177Z,16.08
2023-01-29T20:08:31.351Z,14.20
2023-01-29T20:11:34.096Z,15.50
2023-01-29T20:14:36.289Z,15.70
2023-01-29T20:17:39.051Z,16.02
2023-01-29T20:20:42.992Z,16.27
2023-01-29T20:23:46.046Z,17.98
2023-01-29T20:26:48.424Z,15.15
2023-01-29T20:29:52.703Z,16.10
2023-01-29T20:32:55.289Z,16.25
2023-01-29T20:36:00.879Z,17.08
2023-01-29T20:39:03.412Z,16.77
2023-01-29T20:42:06.014Z,16.58
2023-01-29T20:45:08.666Z,17.52
2023-01-29T20:48:11.275Z,16.65
2023-01-29T20:51:16.655Z,15.02
2023-01-29T20:54:19.608Z,16.30
2023-01-29T20:57:22.076Z,15.98
2023-01-29T21:00:24.722Z,17.75
2023-01-29T21:03:28.003Z,17.33
2023-01-29T21:06:31.110Z,17.17
2023-01-29T21:09:33.490Z,17.10
2023-01-29T21:12:36.193Z,15.98
2023-01-29T21:15:38.899Z,16.52
2023-01-29T21:18:41.828Z,17.05
2023-01-29T21:21:44.086Z,15.93
2023-01-29T21:24:46.744Z,18.37
2023-01-29T21:27:50.098Z,17.90
2023-01-29T21:31:02.668Z,18.12
2023-01-29T21:34:05.224Z,17.55
2023-01-29T21:37:09.377Z,19.48
2023-01-29T21:40:12.814Z,18.95
2023-01-29T21:43:16.034Z,19.85
2023-01-29T21:46:18.300Z,19.77
2023-01-29T21:49:21.150Z,20.08
2023-01-29T21:52:23.395Z,18.40
2023-01-29T21:55:26.087Z,19.48
2023-01-29T21:58:28.857Z,23.65
2023-01-29T22:01:38.198Z,19.60
2023-01-29T22:04:42.480Z,20.60
2023-01-29T22:07:45.065Z,19.83
2023-01-29T22:10:47.896Z,20.85
2023-01-29T22:13:50.195Z,25.27
2023-01-29T22:16:52.749Z,23.35
2023-01-29T22:19:55.143Z,23.40
2023-01-29T22:23:00.300Z,20.25
2023-01-29T22:26:04.172Z,21.55
2023-01-29T22:29:06.729Z,19.95
2023-01-29T22:32:10.239Z,22.45
2023-01-29T22:35:13.271Z,20.12
2023-01-29T22:38:15.555Z,22.27
2023-01-29T22:41:18.172Z,21.75
2023-01-29T22:44:21.437Z,26.33
2023-01-29T22:47:24.010Z,22.52
2023-01-29T22:50:26.303Z,22.77
2023-01-29T22:53:28.827Z,22.45
2023-01-29T22:56:31.181Z,23.85
2023-01-29T22:59:33.880Z,22.37
2023-01-29T23:02:37.364Z,24.37
2023-01-29T23:05:39.885Z,25.08
2023-01-29T23:08:42.196Z,23.12
2023-01-29T23:11:45.002Z,23.92
2023-01-29T23:14:47.308Z,25.37
2023-01-29T23:17:49.856Z,25.58
2023-01-29T23:20:56.834Z,25.30
2023-01-29T23:24:00.535Z,24.75
2023-01-29T23:27:14.930Z,23.70
2023-01-29T23:30:17.849Z,24.77
2023-01-29T23:33:20.514Z,23.27
2023-01-29T23:36:23.467Z,24.65
2023-01-29T23:39:25.759Z,23.33
2023-01-29T23:42:28.346Z,23.05
2023-01-29T23:45:30.582Z,24.95
2023-01-29T23:48:33.320Z,24.00
2023-01-29T23:51:35.560Z,24.27
2023-01-29T23:54:38.087Z,24.52
2023-01-29T23:57:40.301Z,26.23
